createdAt,value
2018-06-10T00:01:27.894Z,70.70
2018-06-10T00:03:58.239Z,70.10
2018-06-10T00:06:28.525Z,69.90
2018-06-10T00:08:58.907Z,69.80
2018-06-10T00:11:31.659Z,70.30
2018-06-10T00:14:02.205Z,69.60
2018-06-10T00:16:32.492Z,69.50
2018-06-10T00:19:03.493Z,69.30
2018-06-10T00:21:33.782Z,69.00
2018-06-10T00:24:04.067Z,69.20
2018-06-10T00:26:34.326Z,69.30
2018-06-10T00:29:24.097Z,68.90
2018-06-10T00:31:54.585Z,68.80
2018-06-10T00:34:25.422Z,68.70
2018-06-10T00:36:57.520Z,69.20
2018-06-10T00:39:27.810Z,69.30
2018-06-10T00:42:00.173Z,69.30
2018-06-10T00:44:30.971Z,69.40
2018-06-10T00:47:01.187Z,69.00
2018-06-10T00:49:32.088Z,70.00
2018-06-10T00:52:03.216Z,69.40
2018-06-10T00:54:34.158Z,69.60
2018-06-10T00:57:07.087Z,69.70
2018-06-10T00:59:37.365Z,70.00
2018-06-10T01:02:09.427Z,69.70
2018-06-10T01:04:39.721Z,69.50
2018-06-10T01:07:10.475Z,69.30
2018-06-10T01:09:40.791Z,69.20
2018-06-10T01:12:11.039Z,69.20
2018-06-10T01:14:41.985Z,69.20
2018-06-10T01:17:12.275Z,68.90
2018-06-10T01:19:43.002Z,69.20
2018-06-10T01:22:13.242Z,69.20
2018-06-10T01:24:43.488Z,69.20
2018-06-10T01:27:13.722Z,69.20
2018-06-10T01:29:47.281Z,69.30
2018-06-10T01:32:19.093Z,69.20
2018-06-10T01:34:49.437Z,69.30
2018-06-10T01:37:19.766Z,69.70
2018-06-10T01:39:50.487Z,70.00
2018-06-10T01:42:20.835Z,69.80
2018-06-10T01:44:51.394Z,69.50
2018-06-10T01:47:22.002Z,69.20
2018-06-10T01:49:52.330Z,69.30
2018-06-10T01:52:22.646Z,69.40
2018-06-10T01:54:53.086Z,69.50
2018-06-10T01:57:23.338Z,69.50
2018-06-10T01:59:53.595Z,69.30
2018-06-10T02:02:24.223Z,69.10
2018-06-10T02:04:54.486Z,69.10
2018-06-10T02:07:24.721Z,69.00
2018-06-10T02:09:55.803Z,69.70
2018-06-10T02:12:28.372Z,68.80
2018-06-10T02:14:58.689Z,68.90
2018-06-10T02:17:28.944Z,69.10
2018-06-10T02:20:00.000Z,69.70
2018-06-10T02:22:31.425Z,69.00
2018-06-10T02:25:02.335Z,69.00
2018-06-10T02:27:33.991Z,69.20
2018-06-10T02:30:04.447Z,69.10
2018-06-10T02:32:34.979Z,69.10
2018-06-10T02:35:06.884Z,68.70
2018-06-10T02:37:37.610Z,68.60
2018-06-10T02:40:07.983Z,68.70
2018-06-10T02:42:39.087Z,68.90
2018-06-10T02:45:09.785Z,68.90
2018-06-10T02:47:41.517Z,69.00
2018-06-10T02:50:13.538Z,69.10
2018-06-10T02:52:44.499Z,69.10
2018-06-10T02:55:15.851Z,69.10
2018-06-10T02:57:46.822Z,69.60
2018-06-10T03:00:17.640Z,69.90
2018-06-10T03:02:50.183Z,69.90
2018-06-10T03:05:21.490Z,70.00
2018-06-10T03:07:53.726Z,70.10
2018-06-10T03:10:25.443Z,70.20
2018-06-10T03:12:56.926Z,70.10
2018-06-10T03:15:27.668Z,70.00
2018-06-10T03:17:58.678Z,69.60
2018-06-10T03:20:30.155Z,69.70
2018-06-10T03:23:02.099Z,69.60
2018-06-10T03:25:32.883Z,69.70
2018-06-10T03:28:03.611Z,69.70
2018-06-10T03:30:37.718Z,69.80
2018-06-10T03:33:08.424Z,69.80
2018-06-10T03:35:40.336Z,69.90
2018-06-10T03:43:24.894Z,70.10
2018-06-10T03:45:58.330Z,70.00
2018-06-10T03:49:12.520Z,71.00
2018-06-10T03:54:52.555Z,70.00
2018-06-10T03:57:38.702Z,70.40
2018-06-10T04:00:09.028Z,70.50
2018-06-10T04:02:41.279Z,70.60
2018-06-10T04:05:11.699Z,71.00
2018-06-10T04:07:42.270Z,70.80
2018-06-10T04:10:12.899Z,70.30
2018-06-10T04:12:43.260Z,70.30
2018-06-10T04:15:16.747Z,69.30
2018-06-10T04:17:47.168Z,69.60
2018-06-10T04:20:17.627Z,70.00
2018-06-10T04:22:47.933Z,70.70
2018-06-10T04:25:18.190Z,69.60
2018-06-10T04:27:48.990Z,69.60
2018-06-10T04:30:19.931Z,69.80
2018-06-10T04:32:50.956Z,69.50
2018-06-10T04:35:21.387Z,69.40
2018-06-10T04:37:51.815Z,69.50
2018-06-10T04:40:22.152Z,69.30
2018-06-10T04:42:52.525Z,69.40
2018-06-10T04:47:53.940Z,68.70
2018-06-10T04:50:24.794Z,68.80
2018-06-10T04:52:55.218Z,68.90
2018-06-10T04:55:25.748Z,68.30
2018-06-10T04:57:56.059Z,68.10
2018-06-10T05:00:26.385Z,68.90
2018-06-10T05:02:57.399Z,68.90
2018-06-10T05:05:27.867Z,68.80
2018-06-10T05:07:58.382Z,68.70
2018-06-10T05:10:28.680Z,68.90
2018-06-10T05:12:59.038Z,69.00
2018-06-10T05:15:29.311Z,69.00
2018-06-10T05:17:59.590Z,68.50
2018-06-10T05:20:30.178Z,67.80
2018-06-10T05:23:00.486Z,67.50
2018-06-10T05:25:30.987Z,66.90
2018-06-10T05:28:01.388Z,67.00
2018-06-10T05:30:31.902Z,67.30
2018-06-10T05:33:02.302Z,67.50
2018-06-10T05:35:32.746Z,67.40
2018-06-10T05:38:03.036Z,67.50
2018-06-10T05:40:33.563Z,67.40
2018-06-10T05:43:03.970Z,67.00
2018-06-10T05:45:34.286Z,66.60
2018-06-10T05:48:04.521Z,66.30
2018-06-10T05:53:06.773Z,65.80
2018-06-10T05:55:37.090Z,65.60
2018-06-10T05:58:07.399Z,65.60
2018-06-10T06:00:37.802Z,64.80
2018-06-10T06:03:08.324Z,64.30
2018-06-10T06:05:38.738Z,64.00
2018-06-10T06:08:09.022Z,63.80
2018-06-10T06:10:39.570Z,63.60
2018-06-10T06:13:09.864Z,63.20
2018-06-10T06:15:43.315Z,63.10
2018-06-10T06:18:13.583Z,63.70
2018-06-10T06:20:45.521Z,64.10
2018-06-10T06:23:15.844Z,63.50
2018-06-10T06:25:46.791Z,63.60
2018-06-10T06:28:18.213Z,63.50
2018-06-10T06:30:49.371Z,63.20
2018-06-10T06:33:20.003Z,62.90
2018-06-10T06:35:50.602Z,62.70
2018-06-10T06:38:21.007Z,62.80
2018-06-10T06:40:51.322Z,62.00
2018-06-10T06:43:21.523Z,61.60
2018-06-10T06:45:51.810Z,61.10
2018-06-10T06:48:22.470Z,60.60
2018-06-10T06:50:53.327Z,58.70
2018-06-10T06:53:24.422Z,59.00
2018-06-10T06:55:55.549Z,58.80
2018-06-10T06:58:26.433Z,59.00
2018-06-10T07:00:58.704Z,59.40
2018-06-10T07:03:29.395Z,60.60
2018-06-10T07:06:00.275Z,58.90
2018-06-10T07:08:31.055Z,59.40
2018-06-10T07:11:01.808Z,59.40
2018-06-10T07:13:33.297Z,59.20
2018-06-10T07:16:06.068Z,59.00
2018-06-10T07:18:48.754Z,58.70
2018-06-10T07:23:53.647Z,57.10
2018-06-10T07:26:25.835Z,56.80
2018-06-10T07:28:56.206Z,55.90
2018-06-10T07:31:26.658Z,55.70
2018-06-10T07:36:39.993Z,53.10
2018-06-10T07:39:12.030Z,52.20
2018-06-10T07:41:49.402Z,51.90
2018-06-10T07:44:20.017Z,52.80
2018-06-10T07:46:51.062Z,52.00
2018-06-10T07:49:21.691Z,51.50
2018-06-10T07:51:52.167Z,48.50
2018-06-10T07:54:22.951Z,48.20
2018-06-10T07:56:54.254Z,48.60
2018-06-10T07:59:25.168Z,48.40
2018-06-10T08:04:25.596Z,47.70
2018-06-10T08:06:55.935Z,48.00
2018-06-10T08:09:26.462Z,47.50
2018-06-10T08:11:56.944Z,48.90
2018-06-10T08:14:27.526Z,48.00
2018-06-10T08:16:57.966Z,48.10
2018-06-10T08:19:28.266Z,47.60
2018-06-10T08:21:58.723Z,47.60
2018-06-10T08:24:29.003Z,48.10
2018-06-10T08:26:59.951Z,47.60
2018-06-10T08:29:30.361Z,46.40
2018-06-10T08:32:00.841Z,46.20
2018-06-10T08:34:31.218Z,45.80
2018-06-10T08:37:01.769Z,47.10
2018-06-10T08:39:35.323Z,45.10
2018-06-10T08:42:06.130Z,44.80
2018-06-10T08:44:37.694Z,45.50
2018-06-10T08:47:07.935Z,44.60
2018-06-10T08:49:38.466Z,43.20
2018-06-10T08:52:08.810Z,43.10
2018-06-10T08:54:39.209Z,43.40
2018-06-10T08:57:09.495Z,42.80
2018-06-10T08:59:39.792Z,43.80
2018-06-10T09:02:10.023Z,44.20
2018-06-10T09:04:46.092Z,44.30
2018-06-10T09:07:21.635Z,45.00
2018-06-10T09:09:52.793Z,45.50
2018-06-10T09:12:23.216Z,45.50
2018-06-10T09:14:55.287Z,44.40
2018-06-10T09:17:28.887Z,45.50
2018-06-10T09:19:59.624Z,45.30
2018-06-10T09:22:34.534Z,44.70
2018-06-10T09:25:05.991Z,44.60
2018-06-10T09:27:36.942Z,43.80
2018-06-10T09:30:07.256Z,44.30
2018-06-10T09:32:38.791Z,43.50
2018-06-10T09:35:10.713Z,43.90
2018-06-10T09:37:40.959Z,44.30
2018-06-10T09:40:11.527Z,44.20
2018-06-10T09:42:45.512Z,45.20
2018-06-10T09:45:16.403Z,43.30
2018-06-10T09:47:48.481Z,42.70
2018-06-10T09:50:18.872Z,41.10
2018-06-10T09:52:49.490Z,42.10
2018-06-10T09:55:20.140Z,43.50
2018-06-10T09:57:50.727Z,42.60
2018-06-10T10:00:25.081Z,42.70
2018-06-10T10:02:56.800Z,41.70
2018-06-10T10:05:28.873Z,41.60
2018-06-10T10:08:00.079Z,42.10
2018-06-10T10:10:31.531Z,41.10
2018-06-10T10:13:02.984Z,40.50
2018-06-10T10:15:36.605Z,40.80
2018-06-10T10:18:10.632Z,39.80
2018-06-10T10:20:42.080Z,38.90
2018-06-10T10:23:14.809Z,39.40
2018-06-10T10:25:45.564Z,40.00
2018-06-10T10:28:17.097Z,40.60
2018-06-10T10:30:48.316Z,41.00
2018-06-10T10:33:20.187Z,41.70
2018-06-10T10:35:54.303Z,41.70
2018-06-10T10:38:26.268Z,42.20
2018-06-10T10:40:57.863Z,42.60
2018-06-10T10:43:29.572Z,42.80
2018-06-10T10:46:01.311Z,42.60
2018-06-10T10:48:32.064Z,45.30
2018-06-10T10:51:07.071Z,47.80
2018-06-10T10:53:38.112Z,52.60
2018-06-10T10:56:11.806Z,53.70
2018-06-10T10:58:43.100Z,57.30
2018-06-10T11:01:14.744Z,61.20
2018-06-10T11:03:46.010Z,63.00
2018-06-10T11:06:16.839Z,64.30
2018-06-10T11:08:47.416Z,63.80
2018-06-10T11:11:17.933Z,68.50
2018-06-10T11:13:48.869Z,68.80
2018-06-10T11:16:19.354Z,70.80
2018-06-10T11:18:50.391Z,74.30
2018-06-10T11:21:22.013Z,74.60
2018-06-10T11:24:00.916Z,73.40
2018-06-10T11:26:32.377Z,74.70
2018-06-10T11:29:02.950Z,73.10
2018-06-10T11:31:33.822Z,73.50
2018-06-10T11:34:04.601Z,72.00
2018-06-10T11:36:35.441Z,69.10
2018-06-10T11:39:09.076Z,69.60
2018-06-10T11:41:39.722Z,66.90
2018-06-10T11:44:10.609Z,62.00
2018-06-10T11:46:41.336Z,59.40
2018-06-10T11:49:11.952Z,59.60
2018-06-10T11:51:42.734Z,56.40
2018-06-10T11:54:13.306Z,56.70
2018-06-10T11:56:43.869Z,56.60
2018-06-10T11:59:14.401Z,54.60
2018-06-10T12:01:44.962Z,53.80
2018-06-10T12:04:15.710Z,52.40
2018-06-10T12:06:46.533Z,51.10
2018-06-10T12:09:17.459Z,51.00
2018-06-10T12:11:59.536Z,49.10
2018-06-10T12:14:29.858Z,48.70
2018-06-10T12:17:00.398Z,46.70
2018-06-10T12:19:30.642Z,44.20
2018-06-10T12:22:01.932Z,45.50
2018-06-10T12:24:33.264Z,43.30
2018-06-10T12:27:04.704Z,43.00
2018-06-10T12:29:36.433Z,44.00
2018-06-10T12:32:14.922Z,39.70
2018-06-10T12:34:48.367Z,39.50
2018-06-10T12:37:30.063Z,38.50
2018-06-10T12:40:02.171Z,39.20
2018-06-10T12:42:33.779Z,37.30
2018-06-10T12:45:14.763Z,37.40
2018-06-10T12:47:57.099Z,37.00
2018-06-10T12:51:00.810Z,39.00
2018-06-10T12:53:34.248Z,39.90
2018-06-10T12:56:12.171Z,39.00
2018-06-10T12:58:55.039Z,40.30
2018-06-10T13:01:32.742Z,39.60
2018-06-10T13:04:12.829Z,37.40
2018-06-10T13:06:51.560Z,37.70
2018-06-10T13:09:26.601Z,36.50
2018-06-10T13:12:05.007Z,33.70
2018-06-10T13:14:52.507Z,33.70
2018-06-10T13:17:26.796Z,33.30
2018-06-10T13:20:03.564Z,31.40
2018-06-10T13:22:39.792Z,32.80
2018-06-10T13:25:17.566Z,30.60
2018-06-10T13:27:53.852Z,32.20
2018-06-10T13:30:30.468Z,33.00
2018-06-10T13:33:04.076Z,32.60
2018-06-10T13:35:35.928Z,34.30
2018-06-10T13:38:11.360Z,34.40
2018-06-10T13:40:48.899Z,35.40
2018-06-10T13:43:27.039Z,33.30
2018-06-10T13:45:58.905Z,33.50
2018-06-10T13:51:55.447Z,36.00
2018-06-10T13:54:43.054Z,36.90
2018-06-10T13:57:47.990Z,36.20
2018-06-10T14:00:37.504Z,36.00
2018-06-10T14:03:08.938Z,36.10
2018-06-10T14:05:39.278Z,35.80
2018-06-10T14:08:13.707Z,35.60
2018-06-10T14:10:52.528Z,35.90
2018-06-10T14:13:25.567Z,36.10
2018-06-10T14:18:52.172Z,37.60
2018-06-10T14:21:23.998Z,38.20
2018-06-10T14:23:58.809Z,38.20
2018-06-10T14:26:29.446Z,38.40
2018-06-10T14:29:00.306Z,39.30
2018-06-10T14:31:31.735Z,38.80
2018-06-10T14:34:02.064Z,38.70
2018-06-10T14:36:32.388Z,39.00
2018-06-10T14:39:05.250Z,40.70
2018-06-10T14:41:35.707Z,39.20
2018-06-10T14:44:06.176Z,38.40
2018-06-10T14:46:36.427Z,38.20
2018-06-10T14:49:06.996Z,37.00
2018-06-10T14:51:37.950Z,36.50
2018-06-10T14:54:08.732Z,37.50
2018-06-10T14:56:39.050Z,38.60
2018-06-10T14:59:24.904Z,39.20
2018-06-10T15:02:04.053Z,39.30
2018-06-10T15:04:36.816Z,40.40
2018-06-10T15:07:07.066Z,40.20
2018-06-10T15:09:45.247Z,40.70
2018-06-10T15:12:15.973Z,41.80
2018-06-10T15:14:46.412Z,42.60
2018-06-10T15:17:16.744Z,43.60
2018-06-10T15:19:52.998Z,43.80
2018-06-10T15:22:23.275Z,44.90
2018-06-10T15:24:53.627Z,46.50
2018-06-10T15:27:24.007Z,46.90
2018-06-10T15:29:54.290Z,45.80
2018-06-10T15:32:24.835Z,46.00
2018-06-10T15:34:55.287Z,46.80
2018-06-10T15:37:25.587Z,46.90
2018-06-10T15:39:55.854Z,49.90
2018-06-10T15:42:26.200Z,51.40
2018-06-10T15:44:56.500Z,51.80
2018-06-10T15:47:26.907Z,53.50
2018-06-10T15:49:57.173Z,58.30
2018-06-10T15:52:27.504Z,59.80
2018-06-10T15:54:57.729Z,61.60
2018-06-10T15:57:28.022Z,62.20
2018-06-10T15:59:58.234Z,63.20
2018-06-10T16:02:28.498Z,62.60
2018-06-10T16:04:58.755Z,64.10
2018-06-10T16:07:29.084Z,61.60
2018-06-10T16:09:59.318Z,64.20
2018-06-10T16:12:29.570Z,63.00
2018-06-10T16:14:59.987Z,64.50
2018-06-10T16:17:30.298Z,64.40
2018-06-10T16:20:01.534Z,63.20
2018-06-10T16:22:31.911Z,63.30
2018-06-10T16:25:02.480Z,64.70
2018-06-10T16:27:33.455Z,65.50
2018-06-10T16:30:05.987Z,66.70
2018-06-10T16:32:37.003Z,67.20
2018-06-10T16:35:07.778Z,65.90
2018-06-10T16:37:38.294Z,66.70
2018-06-10T16:40:08.547Z,68.20
2018-06-10T16:42:42.071Z,68.40
2018-06-10T16:45:12.313Z,69.10
2018-06-10T16:47:42.659Z,69.60
2018-06-10T16:50:14.912Z,70.00
2018-06-10T16:52:45.569Z,69.60
2018-06-10T16:55:16.092Z,68.50
2018-06-10T16:57:46.314Z,68.00
2018-06-10T17:00:16.932Z,66.70
2018-06-10T17:02:47.215Z,66.00
2018-06-10T17:05:17.655Z,66.30
2018-06-10T17:07:48.073Z,66.90
2018-06-10T17:10:18.317Z,67.30
2018-06-10T17:12:48.785Z,68.30
2018-06-10T17:15:19.156Z,68.10
2018-06-10T17:17:49.584Z,68.60
2018-06-10T17:20:19.849Z,68.50
2018-06-10T17:22:50.319Z,67.80
2018-06-10T17:25:20.563Z,67.70
2018-06-10T17:27:50.830Z,67.60
2018-06-10T17:30:21.413Z,67.60
2018-06-10T17:32:51.781Z,68.60
2018-06-10T17:35:22.248Z,68.60
2018-06-10T17:37:52.508Z,68.60
2018-06-10T17:40:23.220Z,68.30
2018-06-10T17:42:53.868Z,67.70
2018-06-10T17:45:24.127Z,67.70
2018-06-10T17:47:54.449Z,68.10
2018-06-10T17:50:24.735Z,69.20
2018-06-10T17:52:55.579Z,69.50
2018-06-10T17:55:26.015Z,69.30
2018-06-10T17:57:58.413Z,69.40
2018-06-10T18:00:29.289Z,69.60
2018-06-10T18:03:02.449Z,69.70
2018-06-10T18:05:33.523Z,70.70
2018-06-10T18:08:03.950Z,69.80
2018-06-10T18:10:34.198Z,69.40
2018-06-10T18:13:04.779Z,69.00
2018-06-10T18:15:35.051Z,69.40
2018-06-10T18:18:05.523Z,70.30
2018-06-10T18:20:35.842Z,69.00
2018-06-10T18:23:06.225Z,69.70
2018-06-10T18:25:36.517Z,69.80
2018-06-10T18:28:06.839Z,69.80
2018-06-10T18:30:37.130Z,69.70
2018-06-10T18:33:07.510Z,69.70
2018-06-10T18:35:37.798Z,69.20
2018-06-10T18:38:08.062Z,68.70
2018-06-10T18:40:38.317Z,68.90
2018-06-10T18:43:08.575Z,69.20
2018-06-10T18:45:38.830Z,69.30
2018-06-10T18:48:09.082Z,69.80
2018-06-10T18:50:39.304Z,70.20
2018-06-10T18:53:09.626Z,70.10
2018-06-10T18:55:39.834Z,70.10
2018-06-10T18:58:11.343Z,70.30
2018-06-10T19:00:42.020Z,70.30
2018-06-10T19:03:14.131Z,70.00
2018-06-10T19:05:45.077Z,70.30
2018-06-10T19:08:17.428Z,70.50
2018-06-10T19:10:47.924Z,70.20
2018-06-10T19:13:18.595Z,70.70
2018-06-10T19:15:49.187Z,70.90
2018-06-10T19:18:21.416Z,70.70
2018-06-10T19:20:51.877Z,70.90
2018-06-10T19:23:22.240Z,71.20
2018-06-10T19:25:52.551Z,71.30
2018-06-10T19:28:23.034Z,71.60
2018-06-10T19:30:53.657Z,71.60
2018-06-10T19:33:24.351Z,72.20
2018-06-10T19:38:26.315Z,71.40
2018-06-10T19:40:56.619Z,71.50
2018-06-10T19:43:27.145Z,71.60
2018-06-10T19:45:57.620Z,71.60
2018-06-10T19:48:27.866Z,71.60
2018-06-10T19:51:05.607Z,71.80
2018-06-10T19:53:35.969Z,71.70
2018-06-10T19:56:07.279Z,71.50
2018-06-10T19:58:43.354Z,70.90
2018-06-10T20:01:14.038Z,72.30
2018-06-10T20:03:44.451Z,71.90
2018-06-10T20:06:15.088Z,72.10
2018-06-10T20:08:45.935Z,72.30
2018-06-10T20:11:16.812Z,72.50
2018-06-10T20:13:47.576Z,72.40
2018-06-10T20:16:18.248Z,72.20
2018-06-10T20:18:49.027Z,72.50
2018-06-10T20:21:20.899Z,72.70
2018-06-10T20:24:02.785Z,72.80
2018-06-10T20:26:33.768Z,72.80
2018-06-10T20:29:04.636Z,72.60
2018-06-10T20:31:35.270Z,72.80
2018-06-10T20:34:05.651Z,72.80
2018-06-10T20:36:36.025Z,72.60
2018-06-10T20:41:53.317Z,72.20
2018-06-10T20:44:24.023Z,72.10
2018-06-10T20:46:54.309Z,72.30
2018-06-10T20:49:24.987Z,72.60
2018-06-10T20:51:55.215Z,72.40
2018-06-10T20:54:25.527Z,72.20
2018-06-10T20:56:55.988Z,72.00
2018-06-10T20:59:30.287Z,71.80
2018-06-10T21:02:08.573Z,71.60
2018-06-10T21:04:39.637Z,71.50
2018-06-10T21:07:13.043Z,71.40
2018-06-10T21:09:44.594Z,71.60
2018-06-10T21:12:14.935Z,71.60
2018-06-10T21:14:45.566Z,71.60
2018-06-10T21:17:15.951Z,71.50
2018-06-10T21:19:46.473Z,71.40
2018-06-10T21:22:16.977Z,71.50
2018-06-10T21:24:48.020Z,71.30
2018-06-10T21:27:18.945Z,71.30
2018-06-10T21:39:47.246Z,70.90
2018-06-10T21:45:46.633Z,75.20
2018-06-10T21:48:34.240Z,75.50
2018-06-10T21:51:19.810Z,75.20
2018-06-10T21:53:56.878Z,74.70
2018-06-10T21:57:02.851Z,75.00
2018-06-10T21:59:45.027Z,73.90
2018-06-10T22:02:22.971Z,73.60
2018-06-10T22:04:55.940Z,73.40
2018-06-10T22:07:27.352Z,73.30
2018-06-10T22:09:58.343Z,73.30
2018-06-10T22:12:34.206Z,73.20
2018-06-10T22:17:42.333Z,73.20
2018-06-10T22:20:15.534Z,73.00
2018-06-10T22:22:46.273Z,73.00
2018-06-10T22:25:18.202Z,72.90
2018-06-10T22:27:50.150Z,72.70
2018-06-10T22:30:24.758Z,72.50
2018-06-10T22:32:57.794Z,72.30
2018-06-10T22:35:30.981Z,72.50
2018-06-10T22:38:05.575Z,72.50
2018-06-10T22:40:39.327Z,72.40
2018-06-10T22:43:12.958Z,72.30
2018-06-10T22:45:49.312Z,72.40
2018-06-10T22:48:43.137Z,72.30
2018-06-10T22:51:25.731Z,72.20
2018-06-10T22:57:05.000Z,72.20
2018-06-10T22:59:37.755Z,71.80
2018-06-10T23:02:12.453Z,71.70
2018-06-10T23:04:42.792Z,71.80
2018-06-10T23:07:13.105Z,72.20
2018-06-10T23:09:43.407Z,72.50
2018-06-10T23:12:13.760Z,72.60
2018-06-10T23:14:44.046Z,72.90
2018-06-10T23:17:14.304Z,72.90
2018-06-10T23:19:44.521Z,72.70
2018-06-10T23:22:14.806Z,72.30
2018-06-10T23:24:45.020Z,72.00
2018-06-10T23:27:15.332Z,72.00
2018-06-10T23:29:45.519Z,72.10
2018-06-10T23:32:15.788Z,72.10
2018-06-10T23:34:46.013Z,71.90
2018-06-10T23:37:16.255Z,71.90
2018-06-10T23:39:46.466Z,72.10
2018-06-10T23:42:17.071Z,72.20
2018-06-10T23:44:47.323Z,72.20
2018-06-10T23:47:17.735Z,72.00
2018-06-10T23:49:47.963Z,72.00
2018-06-10T23:52:18.616Z,71.90
2018-06-10T23:54:48.834Z,72.10
2018-06-10T23:57:19.171Z,72.30
2018-06-10T23:59:49.620Z,72.20
